createdAt,value
2023-05-17T00:01:58.389Z,93892.31
2023-05-17T00:04:27.811Z,93909.13
2023-05-17T00:06:55.808Z,93912.09
2023-05-17T00:09:23.771Z,93904.50
2023-05-17T00:11:51.910Z,93916.31
2023-05-17T00:14:19.989Z,93913.28
2023-05-17T00:16:48.039Z,93916.69
2023-05-17T00:19:16.579Z,93895.59
2023-05-17T00:21:46.140Z,93908.41
2023-05-17T00:24:14.183Z,93890.06
2023-05-17T00:26:42.115Z,93895.94
2023-05-17T00:29:10.060Z,93905.94
2023-05-17T00:31:38.028Z,93923.47
2023-05-17T00:34:05.985Z,93918.06
2023-05-17T00:36:34.055Z,93900.66
2023-05-17T00:39:03.869Z,93907.31
2023-05-17T00:41:31.856Z,93898.84
2023-05-17T00:44:00.183Z,93907.56
2023-05-17T00:46:28.350Z,93910.50
2023-05-17T00:48:57.125Z,93908.47
2023-05-17T00:51:25.088Z,93890.69
2023-05-17T00:53:54.176Z,93896.94
2023-05-17T00:56:24.864Z,93894.53
2023-05-17T00:58:53.738Z,93902.78
2023-05-17T01:01:22.125Z,93921.84
2023-05-17T01:03:50.668Z,93907.84
2023-05-17T01:06:18.854Z,93916.28
2023-05-17T01:08:46.818Z,93923.53
2023-05-17T01:11:25.053Z,93914.72
2023-05-17T01:14:03.725Z,93903.50
2023-05-17T01:16:36.011Z,93903.84
2023-05-17T01:19:13.481Z,93897.84
2023-05-17T01:21:57.964Z,93887.81
2023-05-17T01:24:29.922Z,93906.72
2023-05-17T01:27:02.179Z,93899.13
2023-05-17T01:29:31.309Z,93912.78
2023-05-17T01:32:01.249Z,93876.72
2023-05-17T01:34:30.316Z,93904.75
2023-05-17T01:36:58.776Z,93905.16
2023-05-17T01:39:27.807Z,93893.13
2023-05-17T01:42:03.300Z,93907.59
2023-05-17T01:44:37.713Z,93882.72
2023-05-17T01:47:13.057Z,93886.53
2023-05-17T01:49:45.786Z,93876.09
2023-05-17T01:52:19.964Z,93906.34
2023-05-17T01:54:53.602Z,93900.53
2023-05-17T01:57:29.674Z,93901.13
2023-05-17T02:00:01.590Z,93895.50
2023-05-17T02:02:29.642Z,93909.56
2023-05-17T02:04:58.548Z,93906.56
2023-05-17T02:07:27.205Z,93907.38
2023-05-17T02:09:55.278Z,93904.78
2023-05-17T02:12:25.457Z,93903.56
2023-05-17T02:14:53.417Z,93911.78
2023-05-17T02:17:21.471Z,93901.41
2023-05-17T02:19:49.476Z,93885.75
2023-05-17T02:22:17.451Z,93883.16
2023-05-17T02:24:46.805Z,93891.56
2023-05-17T02:27:14.747Z,93893.97
2023-05-17T02:29:46.166Z,93875.31
2023-05-17T02:32:15.484Z,93893.78
2023-05-17T02:34:43.527Z,93882.97
2023-05-17T02:37:11.511Z,93892.19
2023-05-17T02:39:39.488Z,93893.19
2023-05-17T02:42:08.030Z,93890.16
2023-05-17T02:44:36.020Z,93901.41
2023-05-17T02:47:05.856Z,93903.41
2023-05-17T02:49:33.791Z,93906.03
2023-05-17T02:52:02.410Z,93912.22
2023-05-17T02:54:30.512Z,93921.25
2023-05-17T02:56:58.455Z,93920.66
2023-05-17T02:59:26.383Z,93916.47
2023-05-17T03:01:54.566Z,93920.47
2023-05-17T03:04:23.968Z,93910.25
2023-05-17T03:06:52.102Z,93938.91
2023-05-17T03:09:20.962Z,93939.09
2023-05-17T03:11:49.328Z,93944.50
2023-05-17T03:14:17.308Z,93944.50
2023-05-17T03:16:45.350Z,93947.13
2023-05-17T03:19:13.501Z,93934.09
2023-05-17T03:21:42.891Z,93960.13
2023-05-17T03:24:11.029Z,93966.38
2023-05-17T03:26:39.087Z,93960.56
2023-05-17T03:29:07.046Z,93959.56
2023-05-17T03:31:35.144Z,93946.34
2023-05-17T03:34:03.207Z,93944.91
2023-05-17T03:36:31.473Z,93945.91
2023-05-17T03:39:01.063Z,93934.88
2023-05-17T03:41:29.119Z,93946.13
2023-05-17T03:43:57.059Z,93925.88
2023-05-17T03:46:27.162Z,93941.13
2023-05-17T03:48:55.247Z,93938.91
2023-05-17T03:51:23.385Z,93933.09
2023-05-17T03:53:58.568Z,93942.53
2023-05-17T03:56:28.769Z,93939.09
2023-05-17T03:58:56.791Z,93939.50
2023-05-17T04:01:24.872Z,93945.34
2023-05-17T04:03:53.024Z,93948.31
2023-05-17T04:06:21.090Z,93961.97
2023-05-17T04:08:49.178Z,93958.94
2023-05-17T04:11:23.588Z,93956.56
2023-05-17T04:13:53.162Z,93963.59
2023-05-17T04:16:21.226Z,93959.38
2023-05-17T04:18:52.794Z,93953.75
2023-05-17T04:21:21.493Z,93960.38
2023-05-17T04:23:49.526Z,93950.72
2023-05-17T04:26:17.611Z,93954.34
2023-05-17T04:28:46.009Z,93956.72
2023-05-17T04:31:18.071Z,93944.09
2023-05-17T04:33:46.510Z,93953.72
2023-05-17T04:36:14.661Z,93949.72
2023-05-17T04:38:42.752Z,93955.72
2023-05-17T04:41:11.394Z,93957.75
2023-05-17T04:43:39.374Z,93957.31
2023-05-17T04:46:07.403Z,93951.69
2023-05-17T04:48:37.169Z,93916.81
2023-05-17T04:51:05.695Z,93951.84
2023-05-17T04:53:33.655Z,93944.19
2023-05-17T04:56:01.602Z,93942.78
2023-05-17T04:58:29.938Z,93955.19
2023-05-17T05:00:57.871Z,93964.19
2023-05-17T05:03:26.631Z,93970.94
2023-05-17T05:05:56.068Z,93973.91
2023-05-17T05:08:24.141Z,93974.25
2023-05-17T05:10:52.444Z,93965.97
2023-05-17T05:13:20.498Z,93975.78
2023-05-17T05:15:50.532Z,93962.53
2023-05-17T05:18:18.564Z,93952.56
2023-05-17T05:20:47.642Z,93983.16
2023-05-17T05:23:18.674Z,93983.72
2023-05-17T05:25:47.340Z,93990.94
2023-05-17T05:28:15.466Z,93988.00
2023-05-17T05:30:43.536Z,93977.97
2023-05-17T05:33:11.654Z,93979.28
2023-05-17T05:35:39.665Z,93992.25
2023-05-17T05:38:07.772Z,93969.72
2023-05-17T05:40:37.141Z,93991.13
2023-05-17T05:43:05.333Z,93994.88
2023-05-17T05:45:33.315Z,93988.47
2023-05-17T05:48:01.408Z,93995.84
2023-05-17T05:50:29.850Z,94000.06
2023-05-17T05:53:10.901Z,94011.34
2023-05-17T05:55:47.250Z,93994.03
2023-05-17T05:58:18.259Z,93996.06
2023-05-17T06:00:46.282Z,94000.00
2023-05-17T06:03:14.296Z,93983.97
2023-05-17T06:05:42.490Z,93999.72
2023-05-17T06:08:10.690Z,94010.63
2023-05-17T06:10:38.663Z,93997.59
2023-05-17T06:13:08.235Z,94019.78
2023-05-17T06:15:36.147Z,94027.78
2023-05-17T06:18:04.439Z,94025.09
2023-05-17T06:20:32.607Z,94006.00
2023-05-17T06:23:00.816Z,94003.66
2023-05-17T06:25:28.907Z,94021.75
2023-05-17T06:27:57.160Z,94021.19
2023-05-17T06:30:27.939Z,94028.53
2023-05-17T06:32:56.528Z,94038.09
2023-05-17T06:35:24.887Z,94035.03
2023-05-17T06:37:53.077Z,94027.88
2023-05-17T06:40:21.156Z,94031.50
2023-05-17T06:42:49.211Z,94008.44
2023-05-17T06:45:17.280Z,94011.75
2023-05-17T06:47:46.744Z,94024.88
2023-05-17T06:50:15.190Z,93996.06
2023-05-17T06:52:44.977Z,94021.00
2023-05-17T06:55:12.891Z,94028.41
2023-05-17T06:57:40.854Z,94027.97
2023-05-17T07:00:11.233Z,94018.13
2023-05-17T07:02:39.630Z,94027.25
2023-05-17T07:05:10.019Z,94020.00
2023-05-17T07:07:38.023Z,94034.69
2023-05-17T07:10:07.227Z,94029.88
2023-05-17T07:12:35.450Z,94027.34
2023-05-17T07:15:03.448Z,94041.97
2023-05-17T07:17:31.525Z,94045.88
2023-05-17T07:19:59.730Z,94016.44
2023-05-17T07:22:29.316Z,94044.63
2023-05-17T07:24:57.361Z,94039.81
2023-05-17T07:27:26.568Z,94039.84
2023-05-17T07:29:56.087Z,94059.38
2023-05-17T07:32:24.266Z,94053.31
2023-05-17T07:34:52.285Z,94037.16
2023-05-17T07:37:21.540Z,94046.31
2023-05-17T07:39:50.874Z,94055.91
2023-05-17T07:42:18.923Z,94061.72
2023-05-17T07:44:48.725Z,94056.25
2023-05-17T07:47:17.333Z,94055.78
2023-05-17T07:49:46.246Z,94042.88
2023-05-17T07:52:14.425Z,94030.19
2023-05-17T07:54:42.383Z,94030.88
2023-05-17T07:57:11.808Z,94057.69
2023-05-17T07:59:39.840Z,94060.06
2023-05-17T08:02:08.016Z,94053.00
2023-05-17T08:04:36.249Z,94051.63
2023-05-17T08:07:04.313Z,94044.44
2023-05-17T08:09:32.318Z,94037.47
2023-05-17T08:12:00.387Z,94042.44
2023-05-17T08:14:32.749Z,94050.06
2023-05-17T08:17:00.832Z,94054.13
2023-05-17T08:19:29.071Z,94050.44
2023-05-17T08:21:57.360Z,94031.91
2023-05-17T08:24:25.345Z,94051.75
2023-05-17T08:26:54.487Z,94052.34
2023-05-17T08:29:22.494Z,94042.50
2023-05-17T08:31:52.652Z,94031.47
2023-05-17T08:34:20.722Z,94040.53
2023-05-17T08:36:48.920Z,94036.53
2023-05-17T08:39:17.688Z,94052.97
2023-05-17T08:41:47.852Z,94051.84
2023-05-17T08:44:18.199Z,94054.84
2023-05-17T08:46:53.604Z,94055.53
2023-05-17T08:49:25.924Z,94052.22
2023-05-17T08:51:55.473Z,94054.03
2023-05-17T08:54:23.601Z,94041.81
2023-05-17T08:56:55.110Z,94040.06
2023-05-17T08:59:24.130Z,94044.16
2023-05-17T09:01:55.049Z,94035.94
2023-05-17T09:04:25.147Z,94041.47
2023-05-17T09:06:53.504Z,94033.09
2023-05-17T09:09:21.790Z,94048.09
2023-05-17T09:11:49.766Z,94049.44
2023-05-17T09:14:18.260Z,94033.31
2023-05-17T09:16:46.316Z,94032.81
2023-05-17T09:19:18.082Z,94030.34
2023-05-17T09:21:50.890Z,94031.97
2023-05-17T09:24:22.039Z,94027.66
2023-05-17T09:26:50.827Z,94034.69
2023-05-17T09:29:19.129Z,94034.44
2023-05-17T09:31:47.182Z,94037.47
2023-05-17T09:34:20.258Z,94006.03
2023-05-17T09:36:48.315Z,94023.06
2023-05-17T09:39:17.812Z,94022.75
2023-05-17T09:41:48.348Z,94025.41
2023-05-17T09:44:17.047Z,94044.56
2023-05-17T09:46:47.495Z,94037.56
2023-05-17T09:49:16.473Z,94035.69
2023-05-17T09:51:46.149Z,94048.34
2023-05-17T09:54:14.842Z,94055.84
2023-05-17T09:56:45.796Z,94041.72
2023-05-17T09:59:15.186Z,94039.84
2023-05-17T10:01:45.282Z,94024.25
2023-05-17T10:04:14.790Z,94033.69
2023-05-17T10:06:50.686Z,94000.91
2023-05-17T10:09:23.114Z,94024.09
2023-05-17T10:11:56.581Z,94023.78
2023-05-17T10:14:31.946Z,94013.06
2023-05-17T10:17:01.365Z,94008.09
2023-05-17T10:19:29.811Z,94006.44
2023-05-17T10:22:11.025Z,93995.09
2023-05-17T10:24:49.230Z,93986.47
2023-05-17T10:27:19.362Z,93993.41
2023-05-17T10:29:50.482Z,93992.22
2023-05-17T10:32:23.356Z,93972.91
2023-05-17T10:35:05.874Z,93971.78
2023-05-17T10:37:38.981Z,93965.50
2023-05-17T10:40:13.518Z,93956.22
2023-05-17T10:42:46.107Z,93945.44
2023-05-17T10:45:14.915Z,93922.13
2023-05-17T10:47:46.384Z,93918.28
2023-05-17T10:50:15.761Z,93911.44
2023-05-17T10:52:48.956Z,93900.50
2023-05-17T10:55:20.806Z,93904.50
2023-05-17T10:58:16.160Z,93889.13
2023-05-17T11:00:45.974Z,93900.91
2023-05-17T11:03:19.207Z,93874.41
2023-05-17T11:06:23.671Z,93883.47
2023-05-17T11:09:10.002Z,93886.81
2023-05-17T11:11:38.162Z,93887.69
2023-05-17T11:14:08.715Z,93888.75
2023-05-17T11:16:38.649Z,93906.59
2023-05-17T11:19:12.129Z,93922.22
2023-05-17T11:21:47.289Z,93922.56
2023-05-17T11:24:22.273Z,93944.38
2023-05-17T11:26:51.976Z,93948.38
2023-05-17T11:29:22.092Z,93952.75
2023-05-17T11:31:53.263Z,93941.59
2023-05-17T11:34:23.731Z,93957.16
2023-05-17T11:36:53.616Z,93970.38
2023-05-17T11:39:23.613Z,93962.53
2023-05-17T11:41:53.349Z,93978.84
2023-05-17T11:44:27.062Z,93992.09
2023-05-17T11:47:03.547Z,93964.97
2023-05-17T11:49:35.645Z,93981.81
2023-05-17T11:52:04.877Z,93998.72
2023-05-17T11:54:33.586Z,93999.94
2023-05-17T11:57:02.912Z,93983.69
2023-05-17T11:59:38.596Z,93993.78
2023-05-17T12:02:06.886Z,93985.19
2023-05-17T12:04:37.536Z,93994.28
2023-05-17T12:07:06.144Z,93995.56
2023-05-17T12:09:35.001Z,93993.81
2023-05-17T12:12:04.942Z,93987.09
2023-05-17T12:14:34.505Z,93989.75
2023-05-17T12:17:04.999Z,93981.53
2023-05-17T12:19:33.167Z,93976.16
2023-05-17T12:22:09.504Z,93962.19
2023-05-17T12:24:41.895Z,93959.25
2023-05-17T12:27:10.655Z,93970.34
2023-05-17T12:29:40.773Z,93979.81
2023-05-17T12:32:11.426Z,93976.78
2023-05-17T12:34:40.949Z,93973.38
2023-05-17T12:37:11.062Z,93957.81
2023-05-17T12:39:39.835Z,93945.44
2023-05-17T12:42:09.055Z,93962.44
2023-05-17T12:44:37.193Z,93960.75
2023-05-17T12:47:07.210Z,93955.00
2023-05-17T12:49:40.296Z,93953.63
2023-05-17T12:52:08.863Z,93966.06
2023-05-17T12:54:37.032Z,93947.25
2023-05-17T12:57:13.016Z,93962.97
2023-05-17T12:59:48.875Z,93948.94
2023-05-17T13:02:18.673Z,93961.75
2023-05-17T13:04:47.826Z,93942.22
2023-05-17T13:07:24.187Z,93952.50
2023-05-17T13:09:52.511Z,93944.84
2023-05-17T13:12:22.362Z,93962.22
2023-05-17T13:14:53.424Z,93964.66
2023-05-17T13:17:26.928Z,93964.34
2023-05-17T13:19:57.166Z,93940.66
2023-05-17T13:22:25.984Z,93953.81
2023-05-17T13:24:54.669Z,93968.91
2023-05-17T13:27:22.822Z,93948.47
2023-05-17T13:29:50.845Z,93959.78
2023-05-17T13:32:19.221Z,93964.97
2023-05-17T13:34:48.576Z,93955.00
2023-05-17T13:37:16.688Z,93953.06
2023-05-17T13:39:44.822Z,93955.16
2023-05-17T13:42:14.457Z,93960.09
2023-05-17T13:44:42.550Z,93976.63
2023-05-17T13:47:10.736Z,93976.06
2023-05-17T13:49:38.863Z,93967.72
2023-05-17T13:52:09.589Z,93979.09
2023-05-17T13:54:39.238Z,93953.47
2023-05-17T13:57:08.493Z,93973.16
2023-05-17T13:59:36.599Z,93966.72
2023-05-17T14:02:05.197Z,93957.66
2023-05-17T14:04:33.301Z,93979.31
2023-05-17T14:07:01.886Z,93969.94
2023-05-17T14:09:33.879Z,93968.50
2023-05-17T14:12:02.426Z,93950.09
2023-05-17T14:14:31.927Z,93967.66
2023-05-17T14:17:01.462Z,93970.66
2023-05-17T14:19:29.738Z,93978.31
2023-05-17T14:21:57.941Z,93971.44
2023-05-17T14:24:25.947Z,93974.31
2023-05-17T14:26:55.287Z,93974.88
2023-05-17T14:29:25.655Z,93972.97
2023-05-17T14:31:53.709Z,93942.47
2023-05-17T14:34:22.321Z,93961.28
2023-05-17T14:36:51.095Z,93943.94
2023-05-17T14:39:19.368Z,93971.47
2023-05-17T14:41:47.434Z,93961.91
2023-05-17T14:44:16.867Z,93947.63
2023-05-17T14:46:44.924Z,93971.06
2023-05-17T14:49:13.891Z,93966.47
2023-05-17T14:51:42.312Z,93980.06
2023-05-17T14:54:12.798Z,93966.72
2023-05-17T14:56:42.478Z,93965.34
2023-05-17T14:59:16.568Z,93963.06
2023-05-17T15:01:46.081Z,93975.19
2023-05-17T15:04:14.690Z,93981.44
2023-05-17T15:06:42.846Z,93986.72
2023-05-17T15:09:13.467Z,93969.84
2023-05-17T15:11:42.140Z,93991.88
2023-05-17T15:14:10.134Z,93971.19
2023-05-17T15:16:38.738Z,94000.09
2023-05-17T15:19:08.221Z,94002.13
2023-05-17T15:21:56.152Z,93997.50
2023-05-17T15:24:24.251Z,93997.81
2023-05-17T15:26:52.714Z,93981.06
2023-05-17T15:29:21.043Z,93981.06
2023-05-17T15:31:49.134Z,93964.50
2023-05-17T15:34:18.688Z,93953.69
2023-05-17T15:36:48.255Z,93968.16
2023-05-17T15:39:16.434Z,93952.84
2023-05-17T15:41:45.610Z,93967.91
2023-05-17T15:44:13.971Z,93965.28
2023-05-17T15:46:42.132Z,93968.38
2023-05-17T15:49:10.287Z,93963.84
2023-05-17T15:51:39.649Z,93975.31
2023-05-17T15:54:08.009Z,93962.00
2023-05-17T15:56:38.256Z,93968.34
2023-05-17T15:59:07.849Z,93956.69
2023-05-17T16:01:36.302Z,93976.28
2023-05-17T16:04:04.752Z,93975.81
2023-05-17T16:06:36.242Z,93972.63
2023-05-17T16:09:06.262Z,93970.41
2023-05-17T16:11:34.325Z,93957.13
2023-05-17T16:14:02.619Z,93975.25
2023-05-17T16:16:30.838Z,93976.31
2023-05-17T16:18:59.028Z,93946.22
2023-05-17T16:21:27.104Z,93985.88
2023-05-17T16:23:55.109Z,93989.28
2023-05-17T16:26:24.625Z,93987.66
2023-05-17T16:28:52.860Z,93983.31
2023-05-17T16:31:21.000Z,93987.00
2023-05-17T16:33:49.186Z,93974.47
2023-05-17T16:36:17.836Z,93979.91
2023-05-17T16:38:45.939Z,93983.19
2023-05-17T16:41:13.948Z,93986.19
2023-05-17T16:43:43.349Z,93976.78
2023-05-17T16:46:11.330Z,93959.19
2023-05-17T16:48:39.338Z,93974.06
2023-05-17T16:51:07.392Z,93964.19
2023-05-17T16:53:35.362Z,93992.97
2023-05-17T16:56:03.432Z,93979.72
2023-05-17T16:58:31.547Z,93979.44
2023-05-17T17:01:01.569Z,93981.59
2023-05-17T17:03:29.689Z,93992.78
2023-05-17T17:05:57.981Z,93995.38
2023-05-17T17:08:26.152Z,93991.56
2023-05-17T17:10:54.286Z,93997.94
2023-05-17T17:13:22.396Z,93982.16
2023-05-17T17:15:51.533Z,93978.97
2023-05-17T17:18:20.904Z,93987.44
2023-05-17T17:20:49.065Z,93998.94
2023-05-17T17:23:17.095Z,93964.03
2023-05-17T17:25:45.248Z,93991.16
2023-05-17T17:28:13.767Z,93979.78
2023-05-17T17:30:42.139Z,93991.06
2023-05-17T17:33:10.222Z,93987.44
2023-05-17T17:35:39.903Z,93988.22
2023-05-17T17:38:08.202Z,93990.66
2023-05-17T17:40:36.541Z,93964.34
2023-05-17T17:43:04.618Z,93966.75
2023-05-17T17:45:32.734Z,93976.19
2023-05-17T17:48:00.835Z,93951.28
2023-05-17T17:50:29.200Z,93977.38
2023-05-17T17:52:59.034Z,93992.44
2023-05-17T17:55:27.461Z,93999.66
2023-05-17T17:57:56.120Z,93993.81
2023-05-17T18:00:24.462Z,93994.06
2023-05-17T18:02:52.788Z,93993.06
2023-05-17T18:05:21.416Z,93988.22
2023-05-17T18:07:49.414Z,93978.63
2023-05-17T18:10:19.061Z,93993.06
2023-05-17T18:12:48.219Z,93978.41
2023-05-17T18:15:18.357Z,93984.22
2023-05-17T18:17:48.906Z,93982.59
2023-05-17T18:20:17.209Z,93979.19
2023-05-17T18:22:45.311Z,93964.78
2023-05-17T18:25:13.341Z,93959.34
2023-05-17T18:27:42.739Z,93972.38
2023-05-17T18:30:12.145Z,93969.38
2023-05-17T18:32:40.436Z,93959.31
2023-05-17T18:35:09.383Z,93971.56
2023-05-17T18:37:37.606Z,93980.38
2023-05-17T18:40:06.449Z,93970.94
2023-05-17T18:42:34.594Z,93968.72
2023-05-17T18:45:04.458Z,93972.56
2023-05-17T18:47:32.708Z,93977.34
2023-05-17T18:50:00.936Z,93969.53
2023-05-17T18:52:29.106Z,93992.00
2023-05-17T18:54:57.272Z,93976.34
2023-05-17T18:57:25.339Z,93984.59
2023-05-17T18:59:53.709Z,93996.63
2023-05-17T19:02:23.189Z,94007.03
2023-05-17T19:04:51.344Z,93991.81
2023-05-17T19:07:19.513Z,94006.84
2023-05-17T19:09:47.818Z,94004.06
2023-05-17T19:12:15.938Z,94016.69
2023-05-17T19:14:44.120Z,94022.72
2023-05-17T19:17:12.438Z,94019.72
2023-05-17T19:19:41.881Z,94023.31
2023-05-17T19:22:11.147Z,94025.94
2023-05-17T19:24:39.485Z,94020.31
2023-05-17T19:27:07.627Z,94008.88
2023-05-17T19:29:35.635Z,94033.56
2023-05-17T19:32:04.674Z,94007.09
2023-05-17T19:34:32.775Z,94020.31
2023-05-17T19:37:02.231Z,94014.72
2023-05-17T19:39:31.768Z,94007.88
2023-05-17T19:41:59.857Z,94029.16
2023-05-17T19:44:28.011Z,93990.66
2023-05-17T19:46:56.235Z,94035.59
2023-05-17T19:49:24.803Z,94028.38
2023-05-17T19:51:54.215Z,94017.13
2023-05-17T19:54:23.925Z,94001.69
2023-05-17T19:56:52.408Z,93989.63
2023-05-17T19:59:20.759Z,94010.09
2023-05-17T20:01:51.953Z,94016.09
2023-05-17T20:04:20.106Z,94003.69
2023-05-17T20:06:48.397Z,93985.81
2023-05-17T20:09:16.545Z,94006.84
2023-05-17T20:11:46.151Z,94000.44
2023-05-17T20:14:16.299Z,93999.22
2023-05-17T20:16:44.487Z,93996.97
2023-05-17T20:19:12.659Z,93992.09
2023-05-17T20:21:41.280Z,93992.97
2023-05-17T20:24:09.805Z,93985.72
2023-05-17T20:26:37.957Z,93972.06
2023-05-17T20:29:08.822Z,93990.13
2023-05-17T20:31:37.584Z,93979.22
2023-05-17T20:34:06.509Z,93960.34
2023-05-17T20:36:34.692Z,93978.84
2023-05-17T20:39:03.532Z,93988.13
2023-05-17T20:41:31.747Z,93958.81
2023-05-17T20:43:59.901Z,93962.84
2023-05-17T20:46:30.944Z,93973.31
2023-05-17T20:49:01.092Z,93976.16
2023-05-17T20:51:29.153Z,93989.53
2023-05-17T20:53:57.214Z,93974.94
2023-05-17T20:56:25.596Z,93982.56
2023-05-17T20:58:53.632Z,93972.97
2023-05-17T21:01:22.615Z,93963.13
2023-05-17T21:03:52.728Z,93950.88
2023-05-17T21:06:22.109Z,93975.38
2023-05-17T21:08:50.285Z,93968.53
2023-05-17T21:11:21.389Z,93975.59
2023-05-17T21:13:50.185Z,93977.78
2023-05-17T21:16:18.667Z,93983.41
2023-05-17T21:18:46.946Z,93987.63
2023-05-17T21:21:16.500Z,93963.97
2023-05-17T21:23:44.559Z,93961.56
2023-05-17T21:26:12.686Z,93981.44
2023-05-17T21:28:40.822Z,93980.03
2023-05-17T21:31:08.903Z,93976.41
2023-05-17T21:33:37.643Z,93995.66
2023-05-17T21:36:05.946Z,93991.03
2023-05-17T21:38:35.422Z,93965.94
2023-05-17T21:41:03.704Z,93989.00
2023-05-17T21:43:31.795Z,93990.22
2023-05-17T21:45:59.845Z,93985.00
2023-05-17T21:48:28.020Z,94011.88
2023-05-17T21:50:56.102Z,94011.47
2023-05-17T21:53:24.149Z,94009.88
2023-05-17T21:56:02.198Z,94009.09
2023-05-17T21:58:31.802Z,93990.81
2023-05-17T22:00:59.825Z,93991.84
2023-05-17T22:03:27.974Z,93975.34
2023-05-17T22:05:56.402Z,93983.38
2023-05-17T22:08:24.415Z,93973.75
2023-05-17T22:10:55.739Z,93974.97
2023-05-17T22:13:26.320Z,94000.84
2023-05-17T22:15:57.659Z,93977.97
2023-05-17T22:18:27.172Z,94000.25
2023-05-17T22:20:59.393Z,94009.50
2023-05-17T22:23:28.084Z,93995.66
2023-05-17T22:26:00.561Z,93993.88
2023-05-17T22:28:28.876Z,93979.03
2023-05-17T22:30:57.185Z,93992.25
2023-05-17T22:33:25.290Z,93999.28
2023-05-17T22:35:54.381Z,94003.88
2023-05-17T22:38:23.422Z,94001.28
2023-05-17T22:40:51.479Z,93981.22
2023-05-17T22:43:22.496Z,93979.00
2023-05-17T22:45:51.161Z,94000.25
2023-05-17T22:48:20.873Z,93990.84
2023-05-17T22:50:49.170Z,93982.19
2023-05-17T22:53:18.717Z,93994.00
2023-05-17T22:55:49.127Z,93975.66
2023-05-17T22:58:17.324Z,93995.28
2023-05-17T23:00:46.880Z,94002.50
2023-05-17T23:03:15.447Z,93997.66
2023-05-17T23:05:45.572Z,93977.16
2023-05-17T23:08:15.614Z,93987.22
2023-05-17T23:10:44.677Z,93979.56
2023-05-17T23:13:13.048Z,94002.84
2023-05-17T23:15:46.858Z,93992.00
2023-05-17T23:18:17.351Z,93992.19
2023-05-17T23:20:46.437Z,93986.16
2023-05-17T23:23:15.495Z,93996.38
2023-05-17T23:25:44.867Z,93993.16
2023-05-17T23:28:14.534Z,93987.88
2023-05-17T23:30:44.577Z,93999.97
2023-05-17T23:33:12.792Z,93979.91
2023-05-17T23:35:42.268Z,93985.94
2023-05-17T23:38:10.338Z,93994.38
2023-05-17T23:40:38.325Z,93977.34
2023-05-17T23:43:08.707Z,93990.38
2023-05-17T23:45:36.777Z,93968.50
2023-05-17T23:48:04.825Z,93967.94
2023-05-17T23:50:32.847Z,93996.81
2023-05-17T23:53:03.401Z,93992.34
2023-05-17T23:55:31.504Z,93976.84
2023-05-17T23:57:59.486Z,93980.72
